sensor_id;sensor_type;location;lat;lon;timestamp;pressure;altitude;pressure_sealevel;temperature;humidity
10638;BME280;47007;49.252;8.904;2022-09-27T00:01:49;97944.69;;;10.93;100.00
10638;BME280;47007;49.252;8.904;2022-09-27T00:04:16;97956.91;;;10.94;100.00
10638;BME280;47007;49.252;8.904;2022-09-27T00:06:43;97969.34;;;10.94;100.00
10638;BME280;47007;49.252;8.904;2022-09-27T00:09:09;97958.31;;;10.97;100.00
10638;BME280;47007;49.252;8.904;2022-09-27T00:11:38;97957.38;;;10.91;100.00
10638;BME280;47007;49.252;8.904;2022-09-27T00:14:10;97967.66;;;10.99;100.00
10638;BME280;47007;49.252;8.904;2022-09-27T00:16:39;97953.31;;;11.00;100.00
10638;BME280;47007;49.252;8.904;2022-09-27T00:19:12;97951.84;;;11.04;100.00
10638;BME280;47007;49.252;8.904;2022-09-27T00:21:40;97948.38;;;11.15;100.00
10638;BME280;47007;49.252;8.904;2022-09-27T00:24:12;97921.66;;;10.82;100.00
10638;BME280;47007;49.252;8.904;2022-09-27T00:26:39;97943.31;;;10.91;100.00
10638;BME280;47007;49.252;8.904;2022-09-27T00:29:06;97945.84;;;10.97;100.00
10638;BME280;47007;49.252;8.904;2022-09-27T00:31:34;97942.03;;;10.93;100.00
10638;BME280;47007;49.252;8.904;2022-09-27T00:34:03;97939.53;;;10.87;100.00
10638;BME280;47007;49.252;8.904;2022-09-27T00:36:31;97928.34;;;10.85;100.00
10638;BME280;47007;49.252;8.904;2022-09-27T00:38:59;97928.13;;;10.86;100.00
10638;BME280;47007;49.252;8.904;2022-09-27T00:41:32;97932.94;;;10.89;100.00
10638;BME280;47007;49.252;8.904;2022-09-27T00:44:01;97927.97;;;10.93;100.00
10638;BME280;47007;49.252;8.904;2022-09-27T00:51:38;97918.41;;;10.80;100.00
10638;BME280;47007;49.252;8.904;2022-09-27T00:54:09;97927.41;;;10.91;100.00
10638;BME280;47007;49.252;8.904;2022-09-27T00:56:39;97922.31;;;10.89;100.00
10638;BME280;47007;49.252;8.904;2022-09-27T01:01:37;97900.66;;;10.92;100.00
10638;BME280;47007;49.252;8.904;2022-09-27T01:04:07;97914.03;;;10.97;100.00
10638;BME280;47007;49.252;8.904;2022-09-27T01:06:35;97911.03;;;10.94;100.00
10638;BME280;47007;49.252;8.904;2022-09-27T01:09:04;97902.66;;;10.85;100.00
10638;BME280;47007;49.252;8.904;2022-09-27T01:17:43;97900.00;;;10.85;100.00
10638;BME280;47007;49.252;8.904;2022-09-27T01:23:40;97905.75;;;10.94;100.00
10638;BME280;47007;49.252;8.904;2022-09-27T01:26:33;97906.91;;;10.86;100.00
10638;BME280;47007;49.252;8.904;2022-09-27T01:32:19;97902.28;;;10.82;100.00
10638;BME280;47007;49.252;8.904;2022-09-27T01:35:06;97905.53;;;10.84;100.00
10638;BME280;47007;49.252;8.904;2022-09-27T01:41:02;97892.28;;;10.84;100.00
10638;BME280;47007;49.252;8.904;2022-09-27T01:47:32;97897.94;;;10.75;100.00
10638;BME280;47007;49.252;8.904;2022-09-27T01:50:18;97904.72;;;10.83;100.00
10638;BME280;47007;49.252;8.904;2022-09-27T01:52:53;97908.41;;;10.82;100.00
10638;BME280;47007;49.252;8.904;2022-09-27T01:55:28;97880.88;;;10.60;100.00
10638;BME280;47007;49.252;8.904;2022-09-27T01:58:31;97919.13;;;10.75;100.00
10638;BME280;47007;49.252;8.904;2022-09-27T02:01:00;97917.25;;;10.76;100.00
10638;BME280;47007;49.252;8.904;2022-09-27T02:03:36;97918.06;;;10.76;100.00
10638;BME280;47007;49.252;8.904;2022-09-27T02:06:35;97891.47;;;10.48;100.00
10638;BME280;47007;49.252;8.904;2022-09-27T02:09:28;97904.34;;;10.44;100.00
10638;BME280;47007;49.252;8.904;2022-09-27T02:12:12;97925.09;;;10.48;100.00
10638;BME280;47007;49.252;8.904;2022-09-27T02:17:51;97931.66;;;10.45;100.00
10638;BME280;47007;49.252;8.904;2022-09-27T02:23:14;97929.22;;;10.32;100.00
10638;BME280;47007;49.252;8.904;2022-09-27T02:25:57;97934.38;;;10.27;100.00
10638;BME280;47007;49.252;8.904;2022-09-27T02:28:34;97936.78;;;10.28;100.00
10638;BME280;47007;49.252;8.904;2022-09-27T02:31:06;97941.63;;;10.31;100.00
10638;BME280;47007;49.252;8.904;2022-09-27T02:33:40;97948.09;;;10.35;100.00
10638;BME280;47007;49.252;8.904;2022-09-27T02:36:09;97932.63;;;10.21;100.00
10638;BME280;47007;49.252;8.904;2022-09-27T02:38:37;97945.69;;;10.34;100.00
10638;BME280;47007;49.252;8.904;2022-09-27T02:41:19;97939.56;;;10.33;100.00
10638;BME280;47007;49.252;8.904;2022-09-27T02:43:51;97924.31;;;10.17;100.00
10638;BME280;47007;49.252;8.904;2022-09-27T02:55:48;97950.53;;;10.37;100.00
10638;BME280;47007;49.252;8.904;2022-09-27T03:02:58;97957.53;;;10.31;100.00
10638;BME280;47007;49.252;8.904;2022-09-27T03:05:23;97963.19;;;10.35;100.00
10638;BME280;47007;49.252;8.904;2022-09-27T03:07:51;97943.72;;;10.29;100.00
10638;BME280;47007;49.252;8.904;2022-09-27T03:10:23;97926.63;;;10.14;100.00
10638;BME280;47007;49.252;8.904;2022-09-27T03:12:51;97931.09;;;10.13;100.00
10638;BME280;47007;49.252;8.904;2022-09-27T03:15:19;97951.53;;;10.24;100.00
10638;BME280;47007;49.252;8.904;2022-09-27T03:18:12;97949.56;;;10.20;100.00
10638;BME280;47007;49.252;8.904;2022-09-27T03:21:14;97953.59;;;10.22;100.00
10638;BME280;47007;49.252;8.904;2022-09-27T03:23:42;97944.91;;;10.15;100.00
10638;BME280;47007;49.252;8.904;2022-09-27T03:26:09;97953.22;;;10.19;100.00
10638;BME280;47007;49.252;8.904;2022-09-27T03:28:39;97964.41;;;10.21;100.00
10638;BME280;47007;49.252;8.904;2022-09-27T03:31:05;97955.06;;;10.18;100.00
10638;BME280;47007;49.252;8.904;2022-09-27T03:33:51;97963.81;;;10.19;100.00
10638;BME280;47007;49.252;8.904;2022-09-27T03:36:18;97969.94;;;10.19;100.00
10638;BME280;47007;49.252;8.904;2022-09-27T03:38:45;97978.28;;;10.16;100.00
10638;BME280;47007;49.252;8.904;2022-09-27T03:41:15;97980.13;;;10.16;100.00
10638;BME280;47007;49.252;8.904;2022-09-27T03:43:42;97964.56;;;10.07;100.00
10638;BME280;47007;49.252;8.904;2022-09-27T03:46:09;97968.84;;;10.08;100.00
10638;BME280;47007;49.252;8.904;2022-09-27T03:48:36;97977.34;;;10.11;100.00
10638;BME280;47007;49.252;8.904;2022-09-27T03:51:03;97980.44;;;10.07;100.00
10638;BME280;47007;49.252;8.904;2022-09-27T03:53:30;97978.25;;;10.04;100.00
10638;BME280;47007;49.252;8.904;2022-09-27T03:55:57;97991.47;;;10.04;100.00
10638;BME280;47007;49.252;8.904;2022-09-27T03:58:24;97964.97;;;9.93;100.00
10638;BME280;47007;49.252;8.904;2022-09-27T04:00:51;97979.50;;;10.02;100.00
10638;BME280;47007;49.252;8.904;2022-09-27T04:03:18;97953.47;;;9.87;100.00
10638;BME280;47007;49.252;8.904;2022-09-27T04:06:04;97989.56;;;10.12;100.00
10638;BME280;47007;49.252;8.904;2022-09-27T04:08:36;97979.97;;;9.99;100.00
10638;BME280;47007;49.252;8.904;2022-09-27T04:11:04;97988.38;;;10.07;100.00
10638;BME280;47007;49.252;8.904;2022-09-27T04:13:32;97993.31;;;10.04;100.00
10638;BME280;47007;49.252;8.904;2022-09-27T04:15:58;98011.84;;;10.04;100.00
10638;BME280;47007;49.252;8.904;2022-09-27T04:18:34;97998.34;;;9.94;100.00
10638;BME280;47007;49.252;8.904;2022-09-27T04:21:13;98005.97;;;10.02;100.00
10638;BME280;47007;49.252;8.904;2022-09-27T04:23:46;97992.03;;;9.95;100.00
10638;BME280;47007;49.252;8.904;2022-09-27T04:26:16;98003.25;;;10.08;100.00
10638;BME280;47007;49.252;8.904;2022-09-27T04:28:52;98012.81;;;10.09;100.00
10638;BME280;47007;49.252;8.904;2022-09-27T04:31:21;98022.22;;;10.05;100.00
10638;BME280;47007;49.252;8.904;2022-09-27T04:34:01;98019.19;;;10.02;100.00
10638;BME280;47007;49.252;8.904;2022-09-27T04:36:32;98027.13;;;10.02;100.00
10638;BME280;47007;49.252;8.904;2022-09-27T04:39:14;98022.59;;;9.91;100.00
10638;BME280;47007;49.252;8.904;2022-09-27T04:41:43;98031.88;;;10.00;100.00
10638;BME280;47007;49.252;8.904;2022-09-27T04:44:10;98031.28;;;9.98;100.00
10638;BME280;47007;49.252;8.904;2022-09-27T04:46:40;98027.22;;;9.95;100.00
10638;BME280;47007;49.252;8.904;2022-09-27T04:49:07;97976.03;;;9.53;100.00
10638;BME280;47007;49.252;8.904;2022-09-27T04:51:35;98018.16;;;10.03;100.00
10638;BME280;47007;49.252;8.904;2022-09-27T04:54:02;98019.44;;;10.00;100.00
10638;BME280;47007;49.252;8.904;2022-09-27T04:56:34;98021.84;;;10.02;100.00
10638;BME280;47007;49.252;8.904;2022-09-27T04:59:03;98036.84;;;10.08;100.00
10638;BME280;47007;49.252;8.904;2022-09-27T05:01:36;98038.69;;;10.07;100.00
10638;BME280;47007;49.252;8.904;2022-09-27T05:04:21;98047.44;;;10.08;100.00
10638;BME280;47007;49.252;8.904;2022-09-27T05:06:50;98048.91;;;10.04;100.00
10638;BME280;47007;49.252;8.904;2022-09-27T05:09:30;98053.59;;;10.02;100.00
10638;BME280;47007;49.252;8.904;2022-09-27T05:11:57;98047.50;;;10.01;100.00
10638;BME280;47007;49.252;8.904;2022-09-27T05:14:27;98030.19;;;9.87;100.00
10638;BME280;47007;49.252;8.904;2022-09-27T05:17:17;98062.59;;;10.01;100.00
10638;BME280;47007;49.252;8.904;2022-09-27T05:20:03;98070.75;;;9.99;100.00
10638;BME280;47007;49.252;8.904;2022-09-27T05:22:38;98078.00;;;10.04;100.00
10638;BME280;47007;49.252;8.904;2022-09-27T05:25:06;98073.19;;;10.01;100.00
10638;BME280;47007;49.252;8.904;2022-09-27T05:27:33;98060.66;;;9.90;100.00
10638;BME280;47007;49.252;8.904;2022-09-27T05:30:00;98074.16;;;9.88;100.00
10638;BME280;47007;49.252;8.904;2022-09-27T05:32:42;98084.22;;;9.98;100.00
10638;BME280;47007;49.252;8.904;2022-09-27T05:35:41;98077.81;;;9.87;100.00
10638;BME280;47007;49.252;8.904;2022-09-27T05:38:11;98075.41;;;9.86;100.00
10638;BME280;47007;49.252;8.904;2022-09-27T05:40:41;98113.91;;;10.00;100.00
10638;BME280;47007;49.252;8.904;2022-09-27T05:43:10;98108.31;;;9.90;100.00
10638;BME280;47007;49.252;8.904;2022-09-27T05:45:37;98100.44;;;9.83;100.00
10638;BME280;47007;49.252;8.904;2022-09-27T05:48:05;98119.94;;;9.89;100.00
10638;BME280;47007;49.252;8.904;2022-09-27T05:50:37;98120.22;;;9.81;100.00
10638;BME280;47007;49.252;8.904;2022-09-27T05:53:04;98097.44;;;9.61;100.00
10638;BME280;47007;49.252;8.904;2022-09-27T05:55:31;98123.88;;;9.80;100.00
10638;BME280;47007;49.252;8.904;2022-09-27T05:58:00;98119.91;;;9.70;100.00
10638;BME280;47007;49.252;8.904;2022-09-27T06:04:43;98129.47;;;9.71;100.00
10638;BME280;47007;49.252;8.904;2022-09-27T06:07:30;98139.13;;;9.84;100.00
10638;BME280;47007;49.252;8.904;2022-09-27T06:09:59;98136.38;;;9.91;100.00
10638;BME280;47007;49.252;8.904;2022-09-27T06:12:25;98133.91;;;9.96;100.00
10638;BME280;47007;49.252;8.904;2022-09-27T06:14:52;98136.94;;;9.99;100.00
10638;BME280;47007;49.252;8.904;2022-09-27T06:17:36;98138.56;;;10.00;100.00
10638;BME280;47007;49.252;8.904;2022-09-27T06:20:10;98141.69;;;10.09;100.00
10638;BME280;47007;49.252;8.904;2022-09-27T06:22:37;98132.72;;;10.10;100.00
10638;BME280;47007;49.252;8.904;2022-09-27T06:25:04;98136.91;;;10.18;100.00
10638;BME280;47007;49.252;8.904;2022-09-27T06:27:36;98146.19;;;10.27;100.00
10638;BME280;47007;49.252;8.904;2022-09-27T06:30:12;98144.41;;;10.39;100.00
10638;BME280;47007;49.252;8.904;2022-09-27T06:32:47;98130.25;;;10.33;100.00
10638;BME280;47007;49.252;8.904;2022-09-27T06:35:27;98152.94;;;10.59;100.00
10638;BME280;47007;49.252;8.904;2022-09-27T06:37:54;98151.91;;;10.60;100.00
10638;BME280;47007;49.252;8.904;2022-09-27T06:40:22;98131.19;;;10.39;100.00
10638;BME280;47007;49.252;8.904;2022-09-27T06:43:14;98157.28;;;10.54;100.00
10638;BME280;47007;49.252;8.904;2022-09-27T06:46:05;98143.69;;;10.32;100.00
10638;BME280;47007;49.252;8.904;2022-09-27T06:49:07;98163.22;;;10.37;100.00
10638;BME280;47007;49.252;8.904;2022-09-27T06:51:34;98167.06;;;10.53;100.00
10638;BME280;47007;49.252;8.904;2022-09-27T06:54:01;98154.41;;;10.55;100.00
10638;BME280;47007;49.252;8.904;2022-09-27T06:56:28;98178.44;;;10.72;100.00
10638;BME280;47007;49.252;8.904;2022-09-27T06:58:55;98161.69;;;10.60;100.00
10638;BME280;47007;49.252;8.904;2022-09-27T07:01:43;98176.69;;;10.66;100.00
10638;BME280;47007;49.252;8.904;2022-09-27T07:04:13;98169.72;;;10.53;100.00
10638;BME280;47007;49.252;8.904;2022-09-27T07:07:07;98177.88;;;10.70;100.00
10638;BME280;47007;49.252;8.904;2022-09-27T07:09:39;98185.38;;;10.73;100.00
10638;BME280;47007;49.252;8.904;2022-09-27T07:12:06;98186.84;;;10.69;100.00
10638;BME280;47007;49.252;8.904;2022-09-27T07:14:33;98187.88;;;10.68;100.00
10638;BME280;47007;49.252;8.904;2022-09-27T07:17:01;98192.00;;;10.64;100.00
10638;BME280;47007;49.252;8.904;2022-09-27T07:19:33;98166.13;;;10.48;100.00
10638;BME280;47007;49.252;8.904;2022-09-27T07:22:00;98188.69;;;10.68;100.00
10638;BME280;47007;49.252;8.904;2022-09-27T07:24:28;98191.34;;;10.68;100.00
10638;BME280;47007;49.252;8.904;2022-09-27T07:26:55;98207.50;;;10.78;100.00
10638;BME280;47007;49.252;8.904;2022-09-27T07:29:22;98209.28;;;10.85;100.00
10638;BME280;47007;49.252;8.904;2022-09-27T07:31:51;98201.91;;;10.87;100.00
10638;BME280;47007;49.252;8.904;2022-09-27T07:34:18;98200.34;;;10.97;100.00
10638;BME280;47007;49.252;8.904;2022-09-27T07:36:45;98209.00;;;11.04;100.00
10638;BME280;47007;49.252;8.904;2022-09-27T07:39:12;98216.13;;;11.04;100.00
10638;BME280;47007;49.252;8.904;2022-09-27T07:41:42;98222.34;;;10.98;100.00
10638;BME280;47007;49.252;8.904;2022-09-27T07:44:10;98217.28;;;10.96;100.00
10638;BME280;47007;49.252;8.904;2022-09-27T07:46:48;98230.94;;;11.11;100.00
10638;BME280;47007;49.252;8.904;2022-09-27T07:49:23;98222.00;;;10.94;100.00
10638;BME280;47007;49.252;8.904;2022-09-27T07:52:18;98247.63;;;10.82;100.00
10638;BME280;47007;49.252;8.904;2022-09-27T07:54:52;98239.53;;;10.77;100.00
10638;BME280;47007;49.252;8.904;2022-09-27T07:57:42;98250.66;;;10.86;100.00
10638;BME280;47007;49.252;8.904;2022-09-27T08:00:13;98257.09;;;10.90;100.00
10638;BME280;47007;49.252;8.904;2022-09-27T08:02:42;98231.66;;;10.70;100.00
10638;BME280;47007;49.252;8.904;2022-09-27T08:05:10;98240.53;;;10.94;100.00
10638;BME280;47007;49.252;8.904;2022-09-27T08:07:39;98271.28;;;11.13;100.00
10638;BME280;47007;49.252;8.904;2022-09-27T08:10:07;98273.00;;;11.08;100.00
10638;BME280;47007;49.252;8.904;2022-09-27T08:12:35;98255.09;;;11.03;100.00
10638;BME280;47007;49.252;8.904;2022-09-27T08:15:03;98272.19;;;11.07;100.00
10638;BME280;47007;49.252;8.904;2022-09-27T08:17:31;98271.53;;;11.12;100.00
10638;BME280;47007;49.252;8.904;2022-09-27T08:20:21;98278.53;;;11.06;100.00
10638;BME280;47007;49.252;8.904;2022-09-27T08:23:04;98255.41;;;10.95;100.00
10638;BME280;47007;49.252;8.904;2022-09-27T08:25:34;98272.81;;;11.21;100.00
10638;BME280;47007;49.252;8.904;2022-09-27T08:28:20;98279.34;;;11.37;100.00
10638;BME280;47007;49.252;8.904;2022-09-27T08:30:56;98277.69;;;11.66;100.00
10638;BME280;47007;49.252;8.904;2022-09-27T08:33:25;98257.91;;;11.50;100.00
10638;BME280;47007;49.252;8.904;2022-09-27T08:36:00;98288.38;;;11.89;100.00
10638;BME280;47007;49.252;8.904;2022-09-27T08:38:31;98282.38;;;11.94;100.00
10638;BME280;47007;49.252;8.904;2022-09-27T08:41:15;98259.66;;;12.33;100.00
10638;BME280;47007;49.252;8.904;2022-09-27T08:49:04;98236.75;;;13.69;100.00
10638;BME280;47007;49.252;8.904;2022-09-27T08:51:33;98251.34;;;13.66;100.00
10638;BME280;47007;49.252;8.904;2022-09-27T08:56:37;98253.13;;;12.64;100.00
10638;BME280;47007;49.252;8.904;2022-09-27T08:59:19;98230.31;;;12.79;100.00
10638;BME280;47007;49.252;8.904;2022-09-27T09:01:50;98265.25;;;13.00;100.00
10638;BME280;47007;49.252;8.904;2022-09-27T09:04:36;98263.41;;;12.72;100.00
10638;BME280;47007;49.252;8.904;2022-09-27T09:07:22;98288.81;;;12.79;100.00
10638;BME280;47007;49.252;8.904;2022-09-27T09:15:32;98295.91;;;12.27;100.00
10638;BME280;47007;49.252;8.904;2022-09-27T09:18:52;98287.84;;;12.22;100.00
10638;BME280;47007;49.252;8.904;2022-09-27T09:31:57;98291.84;;;12.59;100.00
10638;BME280;47007;49.252;8.904;2022-09-27T09:34:46;98289.09;;;13.06;100.00
10638;BME280;47007;49.252;8.904;2022-09-27T09:37:32;98277.88;;;14.45;100.00
10638;BME280;47007;49.252;8.904;2022-09-27T09:40:20;98269.91;;;15.37;100.00
10638;BME280;47007;49.252;8.904;2022-09-27T09:43:03;98274.00;;;14.74;100.00
10638;BME280;47007;49.252;8.904;2022-09-27T09:45:43;98277.81;;;14.06;100.00
10638;BME280;47007;49.252;8.904;2022-09-27T09:50:44;98258.38;;;12.87;100.00
10638;BME280;47007;49.252;8.904;2022-09-27T09:53:18;98262.50;;;12.54;100.00
10638;BME280;47007;49.252;8.904;2022-09-27T09:55:59;98269.31;;;12.39;100.00
10638;BME280;47007;49.252;8.904;2022-09-27T09:58:48;98270.50;;;12.31;100.00
10638;BME280;47007;49.252;8.904;2022-09-27T10:01:23;98262.75;;;12.18;100.00
10638;BME280;47007;49.252;8.904;2022-09-27T10:03:54;98267.72;;;12.14;100.00
10638;BME280;47007;49.252;8.904;2022-09-27T10:06:23;98268.97;;;12.12;100.00
10638;BME280;47007;49.252;8.904;2022-09-27T10:08:51;98274.06;;;12.13;100.00
10638;BME280;47007;49.252;8.904;2022-09-27T10:11:43;98250.81;;;12.55;100.00
10638;BME280;47007;49.252;8.904;2022-09-27T10:14:28;98268.72;;;12.72;100.00
10638;BME280;47007;49.252;8.904;2022-09-27T10:17:03;98268.50;;;12.73;100.00
10638;BME280;47007;49.252;8.904;2022-09-27T10:19:33;98240.81;;;12.46;100.00
10638;BME280;47007;49.252;8.904;2022-09-27T10:27:45;98272.56;;;12.06;100.00
10638;BME280;47007;49.252;8.904;2022-09-27T10:30:35;98275.66;;;11.91;100.00
10638;BME280;47007;49.252;8.904;2022-09-27T10:33:16;98282.94;;;11.84;100.00
10638;BME280;47007;49.252;8.904;2022-09-27T10:35:49;98267.50;;;11.63;100.00
10638;BME280;47007;49.252;8.904;2022-09-27T10:38:36;98298.16;;;11.47;100.00
10638;BME280;47007;49.252;8.904;2022-09-27T10:41:33;98306.97;;;10.99;100.00
10638;BME280;47007;49.252;8.904;2022-09-27T10:44:31;98321.38;;;10.49;100.00
10638;BME280;47007;49.252;8.904;2022-09-27T10:47:07;98317.97;;;10.23;100.00
10638;BME280;47007;49.252;8.904;2022-09-27T10:49:41;98322.16;;;10.31;100.00
10638;BME280;47007;49.252;8.904;2022-09-27T10:52:29;98317.84;;;10.36;100.00
10638;BME280;47007;49.252;8.904;2022-09-27T10:54:59;98314.44;;;10.29;100.00
10638;BME280;47007;49.252;8.904;2022-09-27T10:57:30;98299.63;;;9.97;100.00
10638;BME280;47007;49.252;8.904;2022-09-27T11:00:06;98309.94;;;10.05;100.00
10638;BME280;47007;49.252;8.904;2022-09-27T11:02:36;98293.00;;;10.06;100.00
10638;BME280;47007;49.252;8.904;2022-09-27T11:05:10;98303.09;;;10.22;100.00
10638;BME280;47007;49.252;8.904;2022-09-27T11:07:52;98302.59;;;10.32;100.00
10638;BME280;47007;49.252;8.904;2022-09-27T11:22:06;98274.63;;;11.80;100.00
10638;BME280;47007;49.252;8.904;2022-09-27T11:49:04;98247.91;;;13.37;100.00
10638;BME280;47007;49.252;8.904;2022-09-27T11:55:01;98231.09;;;13.65;100.00
10638;BME280;47007;49.252;8.904;2022-09-27T11:57:35;98194.03;;;13.02;100.00
10638;BME280;47007;49.252;8.904;2022-09-27T12:11:20;98225.63;;;14.44;100.00
10638;BME280;47007;49.252;8.904;2022-09-27T12:13:56;98213.16;;;14.49;100.00
10638;BME280;47007;49.252;8.904;2022-09-27T12:16:25;98196.09;;;14.94;100.00
10638;BME280;47007;49.252;8.904;2022-09-27T12:18:53;98213.81;;;15.05;100.00
10638;BME280;47007;49.252;8.904;2022-09-27T12:21:47;98207.00;;;14.49;100.00
10638;BME280;47007;49.252;8.904;2022-09-27T12:24:19;98210.81;;;14.53;100.00
10638;BME280;47007;49.252;8.904;2022-09-27T12:27:12;98230.47;;;15.71;100.00
10638;BME280;47007;49.252;8.904;2022-09-27T12:29:42;98216.72;;;16.83;100.00
10638;BME280;47007;49.252;8.904;2022-09-27T12:32:46;98235.09;;;17.52;100.00
10638;BME280;47007;49.252;8.904;2022-09-27T12:35:26;98231.56;;;17.27;100.00
10638;BME280;47007;49.252;8.904;2022-09-27T12:38:02;98213.69;;;15.22;100.00
10638;BME280;47007;49.252;8.904;2022-09-27T12:40:38;98173.63;;;15.49;100.00
10638;BME280;47007;49.252;8.904;2022-09-27T12:43:26;98187.63;;;15.56;100.00
10638;BME280;47007;49.252;8.904;2022-09-27T12:49:39;98210.00;;;15.82;100.00
10638;BME280;47007;49.252;8.904;2022-09-27T12:52:07;98208.56;;;16.06;100.00
10638;BME280;47007;49.252;8.904;2022-09-27T12:54:52;98208.41;;;16.85;100.00
10638;BME280;47007;49.252;8.904;2022-09-27T13:14:03;98202.44;;;15.73;100.00
10638;BME280;47007;49.252;8.904;2022-09-27T13:16:41;98073.22;;;14.79;100.00
10638;BME280;47007;49.252;8.904;2022-09-27T13:22:09;98206.75;;;14.94;100.00
10638;BME280;47007;49.252;8.904;2022-09-27T13:24:55;98164.63;;;13.70;100.00
10638;BME280;47007;49.252;8.904;2022-09-27T13:27:50;98154.69;;;13.49;100.00
10638;BME280;47007;49.252;8.904;2022-09-27T13:42:10;98179.63;;;12.98;100.00
10638;BME280;47007;49.252;8.904;2022-09-27T13:47:47;98153.56;;;13.00;100.00
10638;BME280;47007;49.252;8.904;2022-09-27T13:50:27;98174.13;;;13.04;100.00
10638;BME280;47007;49.252;8.904;2022-09-27T13:53:34;98178.25;;;13.12;100.00
10638;BME280;47007;49.252;8.904;2022-09-27T13:56:03;98154.59;;;13.27;100.00
10638;BME280;47007;49.252;8.904;2022-09-27T13:58:58;98172.91;;;13.74;100.00
10638;BME280;47007;49.252;8.904;2022-09-27T14:01:37;98180.25;;;13.50;100.00
10638;BME280;47007;49.252;8.904;2022-09-27T14:04:29;98178.25;;;13.40;100.00
10638;BME280;47007;49.252;8.904;2022-09-27T14:06:59;98175.66;;;13.62;100.00
10638;BME280;47007;49.252;8.904;2022-09-27T14:09:31;98168.72;;;13.61;100.00
10638;BME280;47007;49.252;8.904;2022-09-27T14:12:24;98167.50;;;13.18;100.00
10638;BME280;47007;49.252;8.904;2022-09-27T14:14:54;98169.97;;;13.08;100.00
10638;BME280;47007;49.252;8.904;2022-09-27T14:17:22;98169.81;;;13.15;100.00
10638;BME280;47007;49.252;8.904;2022-09-27T14:19:51;98172.44;;;12.98;100.00
10638;BME280;47007;49.252;8.904;2022-09-27T14:22:22;98173.44;;;12.80;100.00
10638;BME280;47007;49.252;8.904;2022-09-27T14:24:56;98170.63;;;12.58;100.00
10638;BME280;47007;49.252;8.904;2022-09-27T14:27:29;98172.59;;;12.51;100.00
10638;BME280;47007;49.252;8.904;2022-09-27T14:30:16;98176.06;;;12.52;100.00
10638;BME280;47007;49.252;8.904;2022-09-27T14:32:51;98160.78;;;12.19;100.00
10638;BME280;47007;49.252;8.904;2022-09-27T14:35:34;98160.09;;;12.00;100.00
10638;BME280;47007;49.252;8.904;2022-09-27T14:38:21;98158.47;;;12.22;100.00
10638;BME280;47007;49.252;8.904;2022-09-27T14:41:13;98185.84;;;12.23;100.00
10638;BME280;47007;49.252;8.904;2022-09-27T14:43:43;98184.13;;;12.05;100.00
10638;BME280;47007;49.252;8.904;2022-09-27T14:46:30;98176.97;;;11.94;100.00
10638;BME280;47007;49.252;8.904;2022-09-27T14:48:57;98171.56;;;11.77;100.00
10638;BME280;47007;49.252;8.904;2022-09-27T14:51:28;98186.44;;;12.02;100.00
10638;BME280;47007;49.252;8.904;2022-09-27T14:53:57;98130.31;;;11.75;100.00
10638;BME280;47007;49.252;8.904;2022-09-27T14:56:29;98177.34;;;11.86;100.00
10638;BME280;47007;49.252;8.904;2022-09-27T14:59:02;98200.06;;;11.94;100.00
10638;BME280;47007;49.252;8.904;2022-09-27T15:01:29;98187.03;;;11.80;100.00
10638;BME280;47007;49.252;8.904;2022-09-27T15:04:05;98182.03;;;11.61;100.00
10638;BME280;47007;49.252;8.904;2022-09-27T15:06:34;98210.19;;;11.73;100.00
10638;BME280;47007;49.252;8.904;2022-09-27T15:09:05;98211.50;;;11.82;100.00
10638;BME280;47007;49.252;8.904;2022-09-27T15:11:32;98204.69;;;11.86;100.00
10638;BME280;47007;49.252;8.904;2022-09-27T15:14:01;98210.78;;;11.75;100.00
10638;BME280;47007;49.252;8.904;2022-09-27T15:16:30;98216.84;;;11.64;100.00
10638;BME280;47007;49.252;8.904;2022-09-27T15:21:34;98222.84;;;11.48;100.00
10638;BME280;47007;49.252;8.904;2022-09-27T15:24:02;98206.44;;;11.39;100.00
10638;BME280;47007;49.252;8.904;2022-09-27T15:26:35;98232.44;;;11.49;100.00
10638;BME280;47007;49.252;8.904;2022-09-27T15:29:03;98221.28;;;11.29;100.00
10638;BME280;47007;49.252;8.904;2022-09-27T15:31:32;98198.38;;;11.04;100.00
10638;BME280;47007;49.252;8.904;2022-09-27T15:34:02;98232.69;;;11.18;100.00
10638;BME280;47007;49.252;8.904;2022-09-27T15:39:26;98229.63;;;11.02;100.00
10638;BME280;47007;49.252;8.904;2022-09-27T15:42:08;98223.72;;;11.00;100.00
10638;BME280;47007;49.252;8.904;2022-09-27T15:47:47;98226.69;;;11.22;100.00
10638;BME280;47007;49.252;8.904;2022-09-27T15:52:45;98229.66;;;11.14;100.00
10638;BME280;47007;49.252;8.904;2022-09-27T15:55:13;98220.88;;;11.13;100.00
10638;BME280;47007;49.252;8.904;2022-09-27T15:57:45;98222.06;;;11.18;100.00
10638;BME280;47007;49.252;8.904;2022-09-27T16:00:15;98193.41;;;10.96;100.00
10638;BME280;47007;49.252;8.904;2022-09-27T16:02:44;98188.34;;;10.95;100.00
10638;BME280;47007;49.252;8.904;2022-09-27T16:05:12;98217.97;;;11.03;100.00
10638;BME280;47007;49.252;8.904;2022-09-27T16:07:39;98216.94;;;11.04;100.00
10638;BME280;47007;49.252;8.904;2022-09-27T16:10:12;98222.69;;;11.01;100.00
10638;BME280;47007;49.252;8.904;2022-09-27T16:12:39;98208.06;;;10.99;100.00
10638;BME280;47007;49.252;8.904;2022-09-27T16:15:06;98222.03;;;11.06;100.00
10638;BME280;47007;49.252;8.904;2022-09-27T16:17:33;98219.47;;;10.99;100.00
10638;BME280;47007;49.252;8.904;2022-09-27T16:20:04;98226.53;;;11.05;100.00
10638;BME280;47007;49.252;8.904;2022-09-27T16:22:31;98227.59;;;11.16;100.00
10638;BME280;47007;49.252;8.904;2022-09-27T16:24:58;98238.13;;;11.23;100.00
10638;BME280;47007;49.252;8.904;2022-09-27T16:27:26;98237.47;;;11.39;100.00
10638;BME280;47007;49.252;8.904;2022-09-27T16:29:53;98231.94;;;11.40;100.00
10638;BME280;47007;49.252;8.904;2022-09-27T16:32:20;98234.94;;;11.44;100.00